sensor_id;sensor_type;location;lat;lon;timestamp;temperature;humidity
70145;DHT22;57510;51.068;3.872;2022-12-07T00:00:20;6.40;99.90
70145;DHT22;57510;51.068;3.872;2022-12-07T00:02:45;6.30;99.90
70145;DHT22;57510;51.068;3.872;2022-12-07T00:05:11;6.20;99.90
70145;DHT22;57510;51.068;3.872;2022-12-07T00:07:36;6.10;99.90
70145;DHT22;57510;51.068;3.872;2022-12-07T00:10:02;6.00;99.90
70145;DHT22;57510;51.068;3.872;2022-12-07T00:12:27;5.90;99.90
70145;DHT22;57510;51.068;3.872;2022-12-07T00:14:53;5.90;99.90
70145;DHT22;57510;51.068;3.872;2022-12-07T00:17:19;5.90;99.90
70145;DHT22;57510;51.068;3.872;2022-12-07T00:19:44;5.80;99.90
70145;DHT22;57510;51.068;3.872;2022-12-07T00:22:10;5.70;99.90
70145;DHT22;57510;51.068;3.872;2022-12-07T00:24:35;5.60;99.90
70145;DHT22;57510;51.068;3.872;2022-12-07T00:27:03;5.60;99.90
70145;DHT22;57510;51.068;3.872;2022-12-07T00:29:29;5.50;99.90
70145;DHT22;57510;51.068;3.872;2022-12-07T00:31:54;5.40;99.90
70145;DHT22;57510;51.068;3.872;2022-12-07T00:34:20;5.40;99.90
70145;DHT22;57510;51.068;3.872;2022-12-07T00:36:46;5.40;99.90
70145;DHT22;57510;51.068;3.872;2022-12-07T00:39:12;5.40;99.90
70145;DHT22;57510;51.068;3.872;2022-12-07T00:41:38;5.50;99.90
70145;DHT22;57510;51.068;3.872;2022-12-07T00:44:04;5.70;99.90
70145;DHT22;57510;51.068;3.872;2022-12-07T00:46:30;5.80;99.90
70145;DHT22;57510;51.068;3.872;2022-12-07T00:48:58;5.80;99.90
70145;DHT22;57510;51.068;3.872;2022-12-07T00:51:24;5.70;99.90
70145;DHT22;57510;51.068;3.872;2022-12-07T00:53:50;5.70;99.90
70145;DHT22;57510;51.068;3.872;2022-12-07T00:56:18;5.70;99.90
70145;DHT22;57510;51.068;3.872;2022-12-07T00:58:43;5.70;99.90
70145;DHT22;57510;51.068;3.872;2022-12-07T01:01:09;5.70;99.90
70145;DHT22;57510;51.068;3.872;2022-12-07T01:03:35;5.70;99.90
70145;DHT22;57510;51.068;3.872;2022-12-07T01:06:01;5.70;99.90
70145;DHT22;57510;51.068;3.872;2022-12-07T01:08:26;5.80;99.90
70145;DHT22;57510;51.068;3.872;2022-12-07T01:13:24;5.90;99.90
70145;DHT22;57510;51.068;3.872;2022-12-07T01:15:50;5.80;99.90
70145;DHT22;57510;51.068;3.872;2022-12-07T01:18:15;5.80;99.90
70145;DHT22;57510;51.068;3.872;2022-12-07T01:20:41;5.80;99.90
70145;DHT22;57510;51.068;3.872;2022-12-07T01:23:07;5.70;99.90
70145;DHT22;57510;51.068;3.872;2022-12-07T01:25:33;5.60;99.90
70145;DHT22;57510;51.068;3.872;2022-12-07T01:27:58;5.60;99.90
70145;DHT22;57510;51.068;3.872;2022-12-07T01:30:24;5.80;99.90
70145;DHT22;57510;51.068;3.872;2022-12-07T01:32:50;5.80;99.90
70145;DHT22;57510;51.068;3.872;2022-12-07T01:35:16;5.90;99.90
70145;DHT22;57510;51.068;3.872;2022-12-07T01:37:42;5.90;99.90
70145;DHT22;57510;51.068;3.872;2022-12-07T01:40:07;6.00;99.90
70145;DHT22;57510;51.068;3.872;2022-12-07T01:42:34;6.20;99.90
70145;DHT22;57510;51.068;3.872;2022-12-07T01:47:43;6.20;99.90
70145;DHT22;57510;51.068;3.872;2022-12-07T01:50:10;6.30;99.90
70145;DHT22;57510;51.068;3.872;2022-12-07T01:52:36;6.30;99.90
70145;DHT22;57510;51.068;3.872;2022-12-07T01:55:04;6.30;99.90
70145;DHT22;57510;51.068;3.872;2022-12-07T01:57:32;6.10;99.90
70145;DHT22;57510;51.068;3.872;2022-12-07T01:59:58;6.00;99.90
70145;DHT22;57510;51.068;3.872;2022-12-07T02:02:27;6.00;99.90
70145;DHT22;57510;51.068;3.872;2022-12-07T02:04:56;6.00;99.90
70145;DHT22;57510;51.068;3.872;2022-12-07T02:07:22;6.10;99.90
70145;DHT22;57510;51.068;3.872;2022-12-07T02:09:48;6.00;99.90
70145;DHT22;57510;51.068;3.872;2022-12-07T02:12:14;6.00;99.90
70145;DHT22;57510;51.068;3.872;2022-12-07T02:14:39;5.90;99.90
70145;DHT22;57510;51.068;3.872;2022-12-07T02:17:07;6.00;99.90
70145;DHT22;57510;51.068;3.872;2022-12-07T02:29:49;6.30;99.90
70145;DHT22;57510;51.068;3.872;2022-12-07T02:32:26;6.20;99.90
70145;DHT22;57510;51.068;3.872;2022-12-07T02:34:55;6.20;99.90
70145;DHT22;57510;51.068;3.872;2022-12-07T02:37:27;6.20;99.90
70145;DHT22;57510;51.068;3.872;2022-12-07T02:39:57;6.10;99.90
70145;DHT22;57510;51.068;3.872;2022-12-07T02:42:26;6.10;99.90
70145;DHT22;57510;51.068;3.872;2022-12-07T02:44:54;6.10;99.90
70145;DHT22;57510;51.068;3.872;2022-12-07T02:47:19;6.10;99.90
70145;DHT22;57510;51.068;3.872;2022-12-07T02:49:46;6.10;99.90
70145;DHT22;57510;51.068;3.872;2022-12-07T02:52:14;6.20;99.90
70145;DHT22;57510;51.068;3.872;2022-12-07T02:54:40;6.20;99.90
70145;DHT22;57510;51.068;3.872;2022-12-07T03:10:27;6.40;99.90
70145;DHT22;57510;51.068;3.872;2022-12-07T03:13:02;6.50;99.90
70145;DHT22;57510;51.068;3.872;2022-12-07T03:15:35;6.50;99.90
70145;DHT22;57510;51.068;3.872;2022-12-07T03:18:03;6.40;99.90
70145;DHT22;57510;51.068;3.872;2022-12-07T03:20:29;6.30;99.90
70145;DHT22;57510;51.068;3.872;2022-12-07T03:22:57;6.20;99.90
70145;DHT22;57510;51.068;3.872;2022-12-07T03:25:23;6.10;99.90
70145;DHT22;57510;51.068;3.872;2022-12-07T03:27:52;6.00;99.90
70145;DHT22;57510;51.068;3.872;2022-12-07T03:30:26;5.80;99.90
70145;DHT22;57510;51.068;3.872;2022-12-07T03:33:03;5.80;99.90
70145;DHT22;57510;51.068;3.872;2022-12-07T03:35:35;5.70;99.90
70145;DHT22;57510;51.068;3.872;2022-12-07T03:40:44;5.50;99.90
70145;DHT22;57510;51.068;3.872;2022-12-07T03:43:15;5.50;99.90
70145;DHT22;57510;51.068;3.872;2022-12-07T03:45:42;5.40;99.90
70145;DHT22;57510;51.068;3.872;2022-12-07T03:48:10;5.30;99.90
70145;DHT22;57510;51.068;3.872;2022-12-07T03:50:47;5.20;99.90
70145;DHT22;57510;51.068;3.872;2022-12-07T03:53:42;5.10;99.90
70145;DHT22;57510;51.068;3.872;2022-12-07T03:56:00;5.10;99.90
70145;DHT22;57510;51.068;3.872;2022-12-07T03:58:26;5.10;99.90
70145;DHT22;57510;51.068;3.872;2022-12-07T04:00:53;5.00;99.90
70145;DHT22;57510;51.068;3.872;2022-12-07T04:03:18;5.00;99.90
70145;DHT22;57510;51.068;3.872;2022-12-07T04:05:46;5.00;99.90
70145;DHT22;57510;51.068;3.872;2022-12-07T04:08:12;4.90;99.90
70145;DHT22;57510;51.068;3.872;2022-12-07T04:10:38;4.90;99.90
70145;DHT22;57510;51.068;3.872;2022-12-07T04:13:03;4.90;99.90
70145;DHT22;57510;51.068;3.872;2022-12-07T04:15:29;4.90;99.90
70145;DHT22;57510;51.068;3.872;2022-12-07T04:17:56;4.90;99.90
70145;DHT22;57510;51.068;3.872;2022-12-07T04:20:22;4.80;99.90
70145;DHT22;57510;51.068;3.872;2022-12-07T04:22:47;4.70;99.90
70145;DHT22;57510;51.068;3.872;2022-12-07T04:25:19;4.60;99.90
70145;DHT22;57510;51.068;3.872;2022-12-07T04:27:45;4.60;99.90
70145;DHT22;57510;51.068;3.872;2022-12-07T04:30:10;4.50;99.90
70145;DHT22;57510;51.068;3.872;2022-12-07T04:32:36;4.50;99.90
70145;DHT22;57510;51.068;3.872;2022-12-07T04:35:05;4.40;99.90
70145;DHT22;57510;51.068;3.872;2022-12-07T04:37:35;4.40;99.90
70145;DHT22;57510;51.068;3.872;2022-12-07T04:40:01;4.40;99.90
70145;DHT22;57510;51.068;3.872;2022-12-07T04:42:27;4.50;99.90
70145;DHT22;57510;51.068;3.872;2022-12-07T04:44:53;4.50;99.90
70145;DHT22;57510;51.068;3.872;2022-12-07T04:47:19;4.50;99.90
70145;DHT22;57510;51.068;3.872;2022-12-07T04:49:45;4.50;99.90
70145;DHT22;57510;51.068;3.872;2022-12-07T04:52:11;4.50;99.90
70145;DHT22;57510;51.068;3.872;2022-12-07T04:54:36;4.60;99.90
70145;DHT22;57510;51.068;3.872;2022-12-07T04:57:02;4.50;99.90
70145;DHT22;57510;51.068;3.872;2022-12-07T04:59:27;4.60;99.90
70145;DHT22;57510;51.068;3.872;2022-12-07T05:01:53;4.70;99.90
70145;DHT22;57510;51.068;3.872;2022-12-07T05:04:18;4.80;99.90
70145;DHT22;57510;51.068;3.872;2022-12-07T05:06:45;4.90;99.90
70145;DHT22;57510;51.068;3.872;2022-12-07T05:09:12;4.90;99.90
70145;DHT22;57510;51.068;3.872;2022-12-07T05:11:38;5.10;99.90
70145;DHT22;57510;51.068;3.872;2022-12-07T05:14:25;5.20;99.90
70145;DHT22;57510;51.068;3.872;2022-12-07T05:16:50;5.30;99.90
70145;DHT22;57510;51.068;3.872;2022-12-07T05:19:16;5.40;99.90
70145;DHT22;57510;51.068;3.872;2022-12-07T05:21:42;5.30;99.90
70145;DHT22;57510;51.068;3.872;2022-12-07T05:24:09;5.40;99.90
70145;DHT22;57510;51.068;3.872;2022-12-07T05:26:35;5.50;99.90
70145;DHT22;57510;51.068;3.872;2022-12-07T05:29:01;5.50;99.90
70145;DHT22;57510;51.068;3.872;2022-12-07T05:31:27;5.50;99.90
70145;DHT22;57510;51.068;3.872;2022-12-07T05:33:53;5.60;99.90
70145;DHT22;57510;51.068;3.872;2022-12-07T05:36:19;5.50;99.90
70145;DHT22;57510;51.068;3.872;2022-12-07T05:38:44;5.60;99.90
70145;DHT22;57510;51.068;3.872;2022-12-07T05:41:11;5.60;99.90
70145;DHT22;57510;51.068;3.872;2022-12-07T05:43:58;5.40;99.90
70145;DHT22;57510;51.068;3.872;2022-12-07T05:46:23;5.30;99.90
70145;DHT22;57510;51.068;3.872;2022-12-07T05:48:49;5.20;99.90
70145;DHT22;57510;51.068;3.872;2022-12-07T05:51:14;5.20;99.90
70145;DHT22;57510;51.068;3.872;2022-12-07T05:53:40;5.20;99.90
70145;DHT22;57510;51.068;3.872;2022-12-07T05:56:05;5.20;99.90
70145;DHT22;57510;51.068;3.872;2022-12-07T05:58:31;5.20;99.90
70145;DHT22;57510;51.068;3.872;2022-12-07T06:01:15;5.20;99.90
70145;DHT22;57510;51.068;3.872;2022-12-07T06:03:41;5.20;99.90
70145;DHT22;57510;51.068;3.872;2022-12-07T06:06:07;5.20;99.90
70145;DHT22;57510;51.068;3.872;2022-12-07T06:08:33;5.30;99.90
70145;DHT22;57510;51.068;3.872;2022-12-07T06:10:58;5.30;99.90
70145;DHT22;57510;51.068;3.872;2022-12-07T06:13:42;5.50;99.90
70145;DHT22;57510;51.068;3.872;2022-12-07T06:16:08;5.60;99.90
70145;DHT22;57510;51.068;3.872;2022-12-07T06:18:33;5.70;99.90
70145;DHT22;57510;51.068;3.872;2022-12-07T06:20:59;5.60;99.90
70145;DHT22;57510;51.068;3.872;2022-12-07T06:23:25;5.70;99.90
70145;DHT22;57510;51.068;3.872;2022-12-07T06:25:51;5.80;99.90
70145;DHT22;57510;51.068;3.872;2022-12-07T06:28:17;5.80;99.90
70145;DHT22;57510;51.068;3.872;2022-12-07T06:30:42;5.80;99.90
70145;DHT22;57510;51.068;3.872;2022-12-07T06:33:08;5.70;99.90
70145;DHT22;57510;51.068;3.872;2022-12-07T06:35:34;5.70;99.90
70145;DHT22;57510;51.068;3.872;2022-12-07T06:38:00;5.60;99.90
70145;DHT22;57510;51.068;3.872;2022-12-07T06:40:26;5.60;99.90
70145;DHT22;57510;51.068;3.872;2022-12-07T06:42:51;5.50;99.90
70145;DHT22;57510;51.068;3.872;2022-12-07T06:45:17;5.40;99.90
70145;DHT22;57510;51.068;3.872;2022-12-07T06:47:43;5.40;99.90
70145;DHT22;57510;51.068;3.872;2022-12-07T06:50:09;5.30;99.90
70145;DHT22;57510;51.068;3.872;2022-12-07T06:52:35;5.30;99.90
70145;DHT22;57510;51.068;3.872;2022-12-07T06:55:00;5.20;99.90
70145;DHT22;57510;51.068;3.872;2022-12-07T06:57:26;5.20;99.90
70145;DHT22;57510;51.068;3.872;2022-12-07T06:59:52;5.20;99.90
70145;DHT22;57510;51.068;3.872;2022-12-07T07:02:17;5.30;99.90
70145;DHT22;57510;51.068;3.872;2022-12-07T07:04:43;5.30;99.90
70145;DHT22;57510;51.068;3.872;2022-12-07T07:07:09;5.40;99.90
70145;DHT22;57510;51.068;3.872;2022-12-07T07:09:34;5.50;99.90
70145;DHT22;57510;51.068;3.872;2022-12-07T07:12:00;5.50;99.90
70145;DHT22;57510;51.068;3.872;2022-12-07T07:14:29;5.40;99.90
70145;DHT22;57510;51.068;3.872;2022-12-07T07:16:55;5.30;99.90
70145;DHT22;57510;51.068;3.872;2022-12-07T07:19:20;5.30;99.90
70145;DHT22;57510;51.068;3.872;2022-12-07T07:21:46;5.20;99.90
70145;DHT22;57510;51.068;3.872;2022-12-07T07:24:12;5.20;99.90
70145;DHT22;57510;51.068;3.872;2022-12-07T07:26:37;5.20;99.90
70145;DHT22;57510;51.068;3.872;2022-12-07T07:29:03;5.20;99.90
70145;DHT22;57510;51.068;3.872;2022-12-07T07:31:28;5.20;99.90
70145;DHT22;57510;51.068;3.872;2022-12-07T07:33:54;5.30;99.90
70145;DHT22;57510;51.068;3.872;2022-12-07T07:36:20;5.30;99.90
70145;DHT22;57510;51.068;3.872;2022-12-07T07:38:45;5.40;99.90
70145;DHT22;57510;51.068;3.872;2022-12-07T07:41:11;5.60;99.90
70145;DHT22;57510;51.068;3.872;2022-12-07T07:43:36;5.70;99.90
70145;DHT22;57510;51.068;3.872;2022-12-07T07:46:02;5.70;99.90
70145;DHT22;57510;51.068;3.872;2022-12-07T07:48:28;5.60;99.90
70145;DHT22;57510;51.068;3.872;2022-12-07T07:50:54;5.60;99.90
70145;DHT22;57510;51.068;3.872;2022-12-07T07:53:21;5.60;99.90
70145;DHT22;57510;51.068;3.872;2022-12-07T07:55:53;5.60;99.90
70145;DHT22;57510;51.068;3.872;2022-12-07T07:58:19;5.60;99.90
70145;DHT22;57510;51.068;3.872;2022-12-07T08:00:45;5.50;99.90
70145;DHT22;57510;51.068;3.872;2022-12-07T08:03:10;5.50;99.90
70145;DHT22;57510;51.068;3.872;2022-12-07T08:05:36;5.40;99.90
70145;DHT22;57510;51.068;3.872;2022-12-07T08:08:02;5.30;99.90
70145;DHT22;57510;51.068;3.872;2022-12-07T08:10:27;5.30;99.90
70145;DHT22;57510;51.068;3.872;2022-12-07T08:12:57;5.20;99.90
70145;DHT22;57510;51.068;3.872;2022-12-07T08:15:42;5.20;99.90
70145;DHT22;57510;51.068;3.872;2022-12-07T08:18:07;5.20;99.90
70145;DHT22;57510;51.068;3.872;2022-12-07T08:20:33;5.10;99.90
70145;DHT22;57510;51.068;3.872;2022-12-07T08:23:06;5.10;99.90
70145;DHT22;57510;51.068;3.872;2022-12-07T08:25:34;5.20;99.90
70145;DHT22;57510;51.068;3.872;2022-12-07T08:28:00;5.30;99.90
70145;DHT22;57510;51.068;3.872;2022-12-07T08:30:27;5.30;99.90
70145;DHT22;57510;51.068;3.872;2022-12-07T08:32:52;5.40;99.90
70145;DHT22;57510;51.068;3.872;2022-12-07T08:35:18;5.40;99.90
70145;DHT22;57510;51.068;3.872;2022-12-07T08:37:44;5.60;99.90
70145;DHT22;57510;51.068;3.872;2022-12-07T08:40:11;5.70;99.90
70145;DHT22;57510;51.068;3.872;2022-12-07T08:42:41;5.80;99.90
70145;DHT22;57510;51.068;3.872;2022-12-07T08:45:07;5.90;99.90
70145;DHT22;57510;51.068;3.872;2022-12-07T08:47:37;6.00;99.90
70145;DHT22;57510;51.068;3.872;2022-12-07T08:50:04;6.10;99.90
70145;DHT22;57510;51.068;3.872;2022-12-07T08:52:31;6.30;99.90
70145;DHT22;57510;51.068;3.872;2022-12-07T08:54:58;6.50;99.90
70145;DHT22;57510;51.068;3.872;2022-12-07T08:57:24;6.60;99.90
70145;DHT22;57510;51.068;3.872;2022-12-07T08:59:50;6.60;99.90
70145;DHT22;57510;51.068;3.872;2022-12-07T09:02:16;6.70;99.90
70145;DHT22;57510;51.068;3.872;2022-12-07T09:04:42;6.70;99.90
70145;DHT22;57510;51.068;3.872;2022-12-07T09:07:07;6.90;99.90
70145;DHT22;57510;51.068;3.872;2022-12-07T09:09:33;6.90;99.90
70145;DHT22;57510;51.068;3.872;2022-12-07T09:11:59;7.00;99.90
70145;DHT22;57510;51.068;3.872;2022-12-07T09:14:24;7.10;99.90
70145;DHT22;57510;51.068;3.872;2022-12-07T09:16:53;7.10;99.90
70145;DHT22;57510;51.068;3.872;2022-12-07T09:19:18;7.20;99.90
70145;DHT22;57510;51.068;3.872;2022-12-07T09:21:44;7.40;99.90
70145;DHT22;57510;51.068;3.872;2022-12-07T09:24:09;7.50;99.90
70145;DHT22;57510;51.068;3.872;2022-12-07T09:26:36;7.60;99.90
70145;DHT22;57510;51.068;3.872;2022-12-07T09:29:05;7.80;99.90
70145;DHT22;57510;51.068;3.872;2022-12-07T09:31:31;7.90;99.90
70145;DHT22;57510;51.068;3.872;2022-12-07T09:33:58;8.00;99.90
70145;DHT22;57510;51.068;3.872;2022-12-07T09:36:24;7.90;99.90
70145;DHT22;57510;51.068;3.872;2022-12-07T09:38:50;7.90;99.90
70145;DHT22;57510;51.068;3.872;2022-12-07T09:41:16;8.00;99.90
70145;DHT22;57510;51.068;3.872;2022-12-07T09:43:42;7.90;99.90
70145;DHT22;57510;51.068;3.872;2022-12-07T09:46:09;7.90;99.90
70145;DHT22;57510;51.068;3.872;2022-12-07T09:48:38;7.90;99.90
70145;DHT22;57510;51.068;3.872;2022-12-07T09:53:59;8.20;99.90
70145;DHT22;57510;51.068;3.872;2022-12-07T09:56:25;8.40;99.90
70145;DHT22;57510;51.068;3.872;2022-12-07T09:59:00;8.40;99.90
70145;DHT22;57510;51.068;3.872;2022-12-07T10:01:28;8.40;99.90
70145;DHT22;57510;51.068;3.872;2022-12-07T10:03:55;8.30;99.90
70145;DHT22;57510;51.068;3.872;2022-12-07T10:06:24;8.20;99.90
70145;DHT22;57510;51.068;3.872;2022-12-07T10:08:50;8.20;99.90
70145;DHT22;57510;51.068;3.872;2022-12-07T10:11:16;8.20;99.90
70145;DHT22;57510;51.068;3.872;2022-12-07T10:13:45;8.20;99.90
70145;DHT22;57510;51.068;3.872;2022-12-07T10:18:58;8.30;99.90
70145;DHT22;57510;51.068;3.872;2022-12-07T10:21:42;8.30;99.90
70145;DHT22;57510;51.068;3.872;2022-12-07T10:24:24;8.20;99.90
70145;DHT22;57510;51.068;3.872;2022-12-07T10:26:51;8.10;99.90
70145;DHT22;57510;51.068;3.872;2022-12-07T10:31:44;7.90;99.90
70145;DHT22;57510;51.068;3.872;2022-12-07T10:34:26;7.80;99.90
70145;DHT22;57510;51.068;3.872;2022-12-07T10:36:54;7.70;99.90
70145;DHT22;57510;51.068;3.872;2022-12-07T10:39:32;7.80;99.90
70145;DHT22;57510;51.068;3.872;2022-12-07T10:42:09;8.00;99.90
70145;DHT22;57510;51.068;3.872;2022-12-07T10:44:40;8.00;99.90
70145;DHT22;57510;51.068;3.872;2022-12-07T11:00:24;8.20;99.90
70145;DHT22;57510;51.068;3.872;2022-12-07T11:08:15;8.70;99.90
70145;DHT22;57510;51.068;3.872;2022-12-07T11:13:18;8.90;99.90
70145;DHT22;57510;51.068;3.872;2022-12-07T11:15:52;8.80;99.90
70145;DHT22;57510;51.068;3.872;2022-12-07T11:20:56;8.30;99.90
70145;DHT22;57510;51.068;3.872;2022-12-07T11:31:23;8.10;99.90
70145;DHT22;57510;51.068;3.872;2022-12-07T11:33:57;8.20;99.90
70145;DHT22;57510;51.068;3.872;2022-12-07T11:36:39;8.30;99.90
70145;DHT22;57510;51.068;3.872;2022-12-07T11:41:42;8.50;99.90
70145;DHT22;57510;51.068;3.872;2022-12-07T11:44:16;8.40;99.90
70145;DHT22;57510;51.068;3.872;2022-12-07T11:49:21;8.60;99.90
70145;DHT22;57510;51.068;3.872;2022-12-07T11:51:49;8.60;99.90
70145;DHT22;57510;51.068;3.872;2022-12-07T11:54:18;8.60;99.90
70145;DHT22;57510;51.068;3.872;2022-12-07T11:56:45;8.70;99.90
70145;DHT22;57510;51.068;3.872;2022-12-07T12:06:47;8.50;99.90
70145;DHT22;57510;51.068;3.872;2022-12-07T12:09:17;8.40;99.90
70145;DHT22;57510;51.068;3.872;2022-12-07T12:14:38;8.20;99.90
70145;DHT22;57510;51.068;3.872;2022-12-07T12:20:20;8.10;99.90
70145;DHT22;57510;51.068;3.872;2022-12-07T12:23:07;8.10;99.90
70145;DHT22;57510;51.068;3.872;2022-12-07T12:25:42;8.10;99.90
70145;DHT22;57510;51.068;3.872;2022-12-07T12:33:34;8.40;99.90
70145;DHT22;57510;51.068;3.872;2022-12-07T12:47:02;8.80;99.90
70145;DHT22;57510;51.068;3.872;2022-12-07T12:49:38;8.90;99.90
70145;DHT22;57510;51.068;3.872;2022-12-07T12:54:35;9.00;99.90
70145;DHT22;57510;51.068;3.872;2022-12-07T12:57:09;9.10;99.90
70145;DHT22;57510;51.068;3.872;2022-12-07T13:04:39;9.30;99.90
70145;DHT22;57510;51.068;3.872;2022-12-07T13:07:10;9.30;99.90
70145;DHT22;57510;51.068;3.872;2022-12-07T13:09:36;9.20;99.90
70145;DHT22;57510;51.068;3.872;2022-12-07T13:12:11;9.20;99.90
70145;DHT22;57510;51.068;3.872;2022-12-07T13:17:12;9.30;99.90
70145;DHT22;57510;51.068;3.872;2022-12-07T13:20:04;8.90;99.90
70145;DHT22;57510;51.068;3.872;2022-12-07T13:25:04;7.60;99.90
70145;DHT22;57510;51.068;3.872;2022-12-07T13:27:31;7.40;99.90
70145;DHT22;57510;51.068;3.872;2022-12-07T13:29:57;7.50;99.90
70145;DHT22;57510;51.068;3.872;2022-12-07T13:32:24;7.60;99.90
70145;DHT22;57510;51.068;3.872;2022-12-07T13:34:50;7.80;99.90
70145;DHT22;57510;51.068;3.872;2022-12-07T13:37:29;8.00;99.90
70145;DHT22;57510;51.068;3.872;2022-12-07T13:39:57;7.90;99.90
70145;DHT22;57510;51.068;3.872;2022-12-07T13:44:53;8.00;99.90
70145;DHT22;57510;51.068;3.872;2022-12-07T13:49:49;7.90;99.90
70145;DHT22;57510;51.068;3.872;2022-12-07T13:52:16;7.90;99.90
70145;DHT22;57510;51.068;3.872;2022-12-07T13:55:15;8.20;99.90
70145;DHT22;57510;51.068;3.872;2022-12-07T13:57:34;8.40;99.90
70145;DHT22;57510;51.068;3.872;2022-12-07T14:00:03;8.50;99.90
70145;DHT22;57510;51.068;3.872;2022-12-07T14:02:32;8.60;99.90
70145;DHT22;57510;51.068;3.872;2022-12-07T14:05:15;8.80;99.90
70145;DHT22;57510;51.068;3.872;2022-12-07T14:07:58;8.70;99.90
70145;DHT22;57510;51.068;3.872;2022-12-07T14:12:53;8.60;99.90
70145;DHT22;57510;51.068;3.872;2022-12-07T14:15:37;8.60;99.90
70145;DHT22;57510;51.068;3.872;2022-12-07T14:18:03;8.50;99.90
70145;DHT22;57510;51.068;3.872;2022-12-07T14:20:34;8.30;99.90
70145;DHT22;57510;51.068;3.872;2022-12-07T14:23:00;8.20;99.90
70145;DHT22;57510;51.068;3.872;2022-12-07T14:25:47;8.10;99.90
70145;DHT22;57510;51.068;3.872;2022-12-07T14:30:54;7.40;99.90
70145;DHT22;57510;51.068;3.872;2022-12-07T14:33:19;7.10;99.90
70145;DHT22;57510;51.068;3.872;2022-12-07T14:35:46;7.00;99.90
70145;DHT22;57510;51.068;3.872;2022-12-07T14:38:12;6.80;99.90
70145;DHT22;57510;51.068;3.872;2022-12-07T14:40:38;6.90;99.90
70145;DHT22;57510;51.068;3.872;2022-12-07T14:43:11;6.80;99.90
70145;DHT22;57510;51.068;3.872;2022-12-07T14:45:37;6.80;99.90
70145;DHT22;57510;51.068;3.872;2022-12-07T14:48:04;6.90;99.90
70145;DHT22;57510;51.068;3.872;2022-12-07T14:50:31;6.80;99.90
70145;DHT22;57510;51.068;3.872;2022-12-07T14:52:59;6.90;99.90
70145;DHT22;57510;51.068;3.872;2022-12-07T14:55:28;6.90;99.90
70145;DHT22;57510;51.068;3.872;2022-12-07T14:57:54;6.90;99.90
70145;DHT22;57510;51.068;3.872;2022-12-07T15:00:21;6.90;99.90
70145;DHT22;57510;51.068;3.872;2022-12-07T15:02:47;6.90;99.90
70145;DHT22;57510;51.068;3.872;2022-12-07T15:05:13;6.90;99.90
70145;DHT22;57510;51.068;3.872;2022-12-07T15:07:38;7.00;99.90
70145;DHT22;57510;51.068;3.872;2022-12-07T15:10:05;7.10;99.90
70145;DHT22;57510;51.068;3.872;2022-12-07T15:12:31;7.10;99.90
70145;DHT22;57510;51.068;3.872;2022-12-07T15:14:57;7.20;99.90
70145;DHT22;57510;51.068;3.872;2022-12-07T15:17:23;7.30;99.90
70145;DHT22;57510;51.068;3.872;2022-12-07T15:19:49;7.40;99.90
70145;DHT22;57510;51.068;3.872;2022-12-07T15:22:15;7.40;99.90
70145;DHT22;57510;51.068;3.872;2022-12-07T15:24:41;7.50;99.90
70145;DHT22;57510;51.068;3.872;2022-12-07T15:27:07;7.50;99.90
70145;DHT22;57510;51.068;3.872;2022-12-07T15:29:33;7.50;99.90
70145;DHT22;57510;51.068;3.872;2022-12-07T15:31:59;7.40;99.90
70145;DHT22;57510;51.068;3.872;2022-12-07T15:34:25;7.40;99.90
70145;DHT22;57510;51.068;3.872;2022-12-07T15:36:53;7.40;99.90
70145;DHT22;57510;51.068;3.872;2022-12-07T15:39:19;7.40;99.90
70145;DHT22;57510;51.068;3.872;2022-12-07T15:41:45;7.30;99.90
70145;DHT22;57510;51.068;3.872;2022-12-07T15:44:11;7.30;99.90
70145;DHT22;57510;51.068;3.872;2022-12-07T15:46:55;7.30;99.90
70145;DHT22;57510;51.068;3.872;2022-12-07T15:49:21;7.20;99.90
70145;DHT22;57510;51.068;3.872;2022-12-07T15:51:46;7.30;99.90
70145;DHT22;57510;51.068;3.872;2022-12-07T15:54:13;7.30;99.90
70145;DHT22;57510;51.068;3.872;2022-12-07T15:56:41;7.40;99.90
70145;DHT22;57510;51.068;3.872;2022-12-07T15:59:07;7.30;99.90
70145;DHT22;57510;51.068;3.872;2022-12-07T16:01:33;7.30;99.90
70145;DHT22;57510;51.068;3.872;2022-12-07T16:03:59;7.20;99.90
70145;DHT22;57510;51.068;3.872;2022-12-07T16:06:24;7.20;99.90
70145;DHT22;57510;51.068;3.872;2022-12-07T16:08:50;7.20;99.90
70145;DHT22;57510;51.068;3.872;2022-12-07T16:11:16;7.20;99.90
70145;DHT22;57510;51.068;3.872;2022-12-07T16:13:42;7.20;99.90
70145;DHT22;57510;51.068;3.872;2022-12-07T16:16:12;7.10;99.90
70145;DHT22;57510;51.068;3.872;2022-12-07T16:18:38;7.00;99.90
70145;DHT22;57510;51.068;3.872;2022-12-07T16:21:04;7.00;99.90
70145;DHT22;57510;51.068;3.872;2022-12-07T16:23:30;6.90;99.90
70145;DHT22;57510;51.068;3.872;2022-12-07T16:26:03;7.00;99.90
70145;DHT22;57510;51.068;3.872;2022-12-07T16:28:28;7.00;99.90
70145;DHT22;57510;51.068;3.872;2022-12-07T16:31:04;7.10;99.90
70145;DHT22;57510;51.068;3.872;2022-12-07T16:33:30;7.20;99.90
70145;DHT22;57510;51.068;3.872;2022-12-07T16:35:55;7.30;99.90
70145;DHT22;57510;51.068;3.872;2022-12-07T16:38:23;7.30;99.90
70145;DHT22;57510;51.068;3.872;2022-12-07T16:40:49;7.30;99.90
70145;DHT22;57510;51.068;3.872;2022-12-07T16:43:17;7.30;99.90
70145;DHT22;57510;51.068;3.872;2022-12-07T16:45:45;7.10;99.90
70145;DHT22;57510;51.068;3.872;2022-12-07T16:48:11;7.10;99.90
70145;DHT22;57510;51.068;3.872;2022-12-07T16:50:39;7.20;99.90
70145;DHT22;57510;51.068;3.872;2022-12-07T16:53:05;7.10;99.90
70145;DHT22;57510;51.068;3.872;2022-12-07T16:55:31;7.10;99.90
70145;DHT22;57510;51.068;3.872;2022-12-07T16:57:58;7.10;99.90
70145;DHT22;57510;51.068;3.872;2022-12-07T17:00:23;7.10;99.90
70145;DHT22;57510;51.068;3.872;2022-12-07T17:02:50;7.10;99.90
70145;DHT22;57510;51.068;3.872;2022-12-07T17:05:16;7.10;99.90
70145;DHT22;57510;51.068;3.872;2022-12-07T17:07:42;7.20;99.90
70145;DHT22;57510;51.068;3.872;2022-12-07T17:10:08;7.10;99.90
70145;DHT22;57510;51.068;3.872;2022-12-07T17:12:33;7.10;99.90
70145;DHT22;57510;51.068;3.872;2022-12-07T17:14:59;7.10;99.90
70145;DHT22;57510;51.068;3.872;2022-12-07T17:17:51;7.10;99.90
70145;DHT22;57510;51.068;3.872;2022-12-07T17:20:17;7.10;99.90
70145;DHT22;57510;51.068;3.872;2022-12-07T17:22:43;7.10;99.90
70145;DHT22;57510;51.068;3.872;2022-12-07T17:25:09;7.10;99.90
70145;DHT22;57510;51.068;3.872;2022-12-07T17:27:35;7.10;99.90
70145;DHT22;57510;51.068;3.872;2022-12-07T17:30:02;7.10;99.90
70145;DHT22;57510;51.068;3.872;2022-12-07T17:32:28;7.00;99.90
70145;DHT22;57510;51.068;3.872;2022-12-07T17:34:54;7.00;99.90
70145;DHT22;57510;51.068;3.872;2022-12-07T17:37:20;6.90;99.90
70145;DHT22;57510;51.068;3.872;2022-12-07T17:39:45;6.80;99.90
70145;DHT22;57510;51.068;3.872;2022-12-07T17:42:11;6.70;99.90
70145;DHT22;57510;51.068;3.872;2022-12-07T17:44:55;6.60;99.90
70145;DHT22;57510;51.068;3.872;2022-12-07T17:47:21;6.40;99.90
70145;DHT22;57510;51.068;3.872;2022-12-07T17:49:47;6.30;99.90
70145;DHT22;57510;51.068;3.872;2022-12-07T17:52:13;6.20;99.90
70145;DHT22;57510;51.068;3.872;2022-12-07T17:54:57;6.20;99.90
70145;DHT22;57510;51.068;3.872;2022-12-07T17:57:23;6.20;99.90